Aérodrome :
LOGIN :

S'inscrire | Disclaimer

   EN    FR    IT 

 










Légende :    VFR   VFR Marginal   IFR   IFR Intensif   IFR Très Intensif
Visi : 
Plafond : 
>= 8 km
>= 3000ft
5 à 8 km
1000 à 3000 ft
1500m à 5 km
500 à 1000 ft
800 à 1500m
200 à 500 ft
< 800m
< 200 ft
Symboles :   Orages  Brouillard  Fortes neiges  Fortes précipitations  Vent > 20 kt
SIGMETs :   Divers  Orages  Givrage  Turbulence  Onde Orograph.  Cendres Volcan.






- Altitude de l'aérodrome : 1416 ft
- Code IATA : ZRH


LSZH - Zurich

DERNIER METAR :
  • 281020Z 10004KT 050V170 9999 FEW060 21/07 Q1028 NOSIG

METARs EXPIRÉS :
  • 280950Z VRB04KT 9999 FEW060 20/06 Q1028 NOSIG
  • 280920Z VRB03KT CAVOK 19/08 Q1028 NOSIG
  • 280850Z VRB02KT CAVOK 19/09 Q1028 NOSIG
  • 280820Z VRB02KT CAVOK 17/07 Q1028 NOSIG
  • 280750Z VRB01KT CAVOK 16/09 Q1029 NOSIG

TAF TAF LSZH
Valide du 28 à 09h jusqu'au 29 à 15h UTC


280825Z 2809/2915 VRB03KT CAVOK TX23/2813Z TN07/2904Z TX20/2915Z
BECMG 2810/2813 03008KT 9999 SCT060
PROB30 2812/2818 SHRA SCT055TCU
TEMPO 2812/2901 04012KT
BECMG 2820/2823 CAVOK
BECMG 2905/2908 05012G25KT
PROB40
TEMPO 2909/2915 05015G30KT 9999 FEW060
ATIS : +41 43 816 2295 (DEP) +41 43 816 2294 (ARR)



MET'MAP, la Météo Aéronautique d'un coup d'oeil ! - Copyright ORBIFLY Décembre 2007 - Disclaimer

ORBIFLY MET'MAP TEAM :

Programmation & Développement : Alexandra Zaïnal
Sur une idée originale de : Baudouin d'Aumeries
Assistance à la programmation : Marc-Olivier Méhu
Soutien technique & logistique : Manuel Goepfert

Contact : metmap@orbifly.com




SOURCES & CREDITS :

   NOAA